createdAt,value
2023-01-21T00:01:50.114Z,34.96
2023-01-21T00:04:19.531Z,34.87
2023-01-21T00:06:47.814Z,34.92
2023-01-21T00:09:16.497Z,34.91
2023-01-21T00:11:46.334Z,34.58
2023-01-21T00:14:15.185Z,35.05
2023-01-21T00:16:43.461Z,35.01
2023-01-21T00:19:12.522Z,35.04
2023-01-21T00:21:40.934Z,34.93
2023-01-21T00:24:09.687Z,34.85
2023-01-21T00:26:38.220Z,34.90
2023-01-21T00:29:08.401Z,34.78
2023-01-21T00:31:36.713Z,34.90
2023-01-21T00:34:05.395Z,35.05
2023-01-21T00:36:33.797Z,35.31
2023-01-21T00:39:02.562Z,35.33
2023-01-21T00:41:30.884Z,35.21
2023-01-21T00:43:59.553Z,35.34
2023-01-21T00:46:29.807Z,35.04
2023-01-21T00:49:00.249Z,35.23
2023-01-21T00:51:29.046Z,35.17
2023-01-21T00:53:57.588Z,35.09
2023-01-21T00:56:25.911Z,35.10
2023-01-21T00:58:54.693Z,35.06
2023-01-21T01:01:23.775Z,35.07
2023-01-21T01:03:53.984Z,34.88
2023-01-21T01:06:24.698Z,34.74
2023-01-21T01:08:54.350Z,34.89
2023-01-21T01:11:22.736Z,34.81
2023-01-21T01:13:51.323Z,34.63
2023-01-21T01:16:20.106Z,34.83
2023-01-21T01:18:49.018Z,34.74
2023-01-21T01:21:19.991Z,34.51
2023-01-21T01:23:48.997Z,34.52
2023-01-21T01:26:18.845Z,34.49
2023-01-21T01:28:47.657Z,34.50
2023-01-21T01:31:18.472Z,34.52
2023-01-21T01:33:47.424Z,34.47
2023-01-21T01:36:19.318Z,34.37
2023-01-21T01:38:47.886Z,34.64
2023-01-21T01:41:18.023Z,34.52
2023-01-21T01:43:55.665Z,34.11
2023-01-21T01:46:25.497Z,34.46
2023-01-21T01:48:56.996Z,34.25
2023-01-21T01:51:30.732Z,34.10
2023-01-21T01:54:00.170Z,34.71
2023-01-21T01:56:29.761Z,34.45
2023-01-21T01:58:58.657Z,34.68
2023-01-21T02:01:27.385Z,34.44
2023-01-21T02:03:59.581Z,34.42
2023-01-21T02:06:29.625Z,34.42
2023-01-21T02:08:58.600Z,34.47
2023-01-21T02:11:27.118Z,34.37
2023-01-21T02:13:58.744Z,33.90
2023-01-21T02:16:35.931Z,33.05
2023-01-21T02:19:22.258Z,33.67
2023-01-21T02:22:02.686Z,33.90
2023-01-21T02:25:03.874Z,33.56
2023-01-21T02:27:42.520Z,33.64
2023-01-21T02:30:27.967Z,33.58
2023-01-21T02:33:19.152Z,33.13
2023-01-21T02:35:48.216Z,32.52
2023-01-21T02:38:22.405Z,33.32
2023-01-21T02:40:59.548Z,33.38
2023-01-21T02:43:33.929Z,33.42
2023-01-21T02:46:09.121Z,33.66
2023-01-21T02:48:41.334Z,33.68
2023-01-21T02:51:09.984Z,34.11
2023-01-21T02:53:38.602Z,34.09
2023-01-21T02:56:09.286Z,33.91
2023-01-21T02:58:38.971Z,33.99
2023-01-21T03:01:14.231Z,33.65
2023-01-21T03:03:59.221Z,33.14
2023-01-21T03:06:53.604Z,33.02
2023-01-21T03:09:24.285Z,33.81
2023-01-21T03:12:02.956Z,33.16
2023-01-21T03:14:52.230Z,33.47
2023-01-21T03:17:27.383Z,33.56
2023-01-21T03:20:02.167Z,33.30
2023-01-21T03:22:33.806Z,33.63
2023-01-21T03:25:04.297Z,33.90
2023-01-21T03:27:33.963Z,33.71
2023-01-21T03:30:06.064Z,33.55
2023-01-21T03:32:35.920Z,33.71
2023-01-21T03:35:07.661Z,33.46
2023-01-21T03:37:39.455Z,33.45
2023-01-21T03:40:15.648Z,33.13
2023-01-21T03:42:44.909Z,33.72
2023-01-21T03:45:13.593Z,33.76
2023-01-21T03:47:43.653Z,33.57
2023-01-21T03:50:17.650Z,33.10
2023-01-21T03:52:46.429Z,33.52
2023-01-21T03:55:15.879Z,33.66
2023-01-21T03:57:44.617Z,33.62
2023-01-21T04:00:13.641Z,33.82
2023-01-21T04:02:42.390Z,33.73
2023-01-21T04:05:10.816Z,33.82
2023-01-21T04:07:40.766Z,33.54
2023-01-21T04:10:10.521Z,33.87
2023-01-21T04:12:40.697Z,32.35
2023-01-21T04:15:10.560Z,33.69
2023-01-21T04:17:38.995Z,33.76
2023-01-21T04:20:09.597Z,33.66
2023-01-21T04:22:38.208Z,33.71
2023-01-21T04:25:08.566Z,33.73
2023-01-21T04:27:36.986Z,33.71
2023-01-21T04:30:05.874Z,33.61
2023-01-21T04:32:34.596Z,33.78
2023-01-21T04:35:02.902Z,33.96
2023-01-21T04:37:31.617Z,33.83
2023-01-21T04:39:59.943Z,33.83
2023-01-21T04:42:29.893Z,33.75
2023-01-21T04:44:58.179Z,33.67
2023-01-21T04:47:26.617Z,33.54
2023-01-21T04:49:55.182Z,33.62
2023-01-21T04:52:23.725Z,33.75
2023-01-21T04:54:51.964Z,33.64
2023-01-21T04:57:20.550Z,33.47
2023-01-21T04:59:50.053Z,33.38
2023-01-21T05:02:18.731Z,33.47
2023-01-21T05:04:47.024Z,33.53
2023-01-21T05:07:15.973Z,33.36
2023-01-21T05:09:44.139Z,33.62
2023-01-21T05:12:12.604Z,33.55
2023-01-21T05:14:41.022Z,33.77
2023-01-21T05:17:12.764Z,33.49
2023-01-21T05:19:40.935Z,33.66
2023-01-21T05:22:09.414Z,33.71
2023-01-21T05:24:37.585Z,33.73
2023-01-21T05:27:06.073Z,33.69
2023-01-21T05:29:34.298Z,33.64
2023-01-21T05:32:02.975Z,33.46
2023-01-21T05:34:32.608Z,33.32
2023-01-21T05:37:01.250Z,33.68
2023-01-21T05:39:29.574Z,33.66
2023-01-21T05:41:58.100Z,33.48
2023-01-21T05:44:26.385Z,33.43
2023-01-21T05:46:55.090Z,33.43
2023-01-21T05:49:23.285Z,33.29
2023-01-21T05:51:53.474Z,33.15
2023-01-21T05:54:21.653Z,33.41
2023-01-21T05:56:50.315Z,33.29
2023-01-21T05:59:18.601Z,33.23
2023-01-21T06:01:47.532Z,33.51
2023-01-21T06:04:15.876Z,33.29
2023-01-21T06:06:44.482Z,33.36
2023-01-21T06:09:13.995Z,32.87
2023-01-21T06:11:42.796Z,32.87
2023-01-21T06:14:12.493Z,32.96
2023-01-21T06:16:41.225Z,32.97
2023-01-21T06:19:09.379Z,32.85
2023-01-21T06:21:37.864Z,32.87
2023-01-21T06:24:06.714Z,32.73
2023-01-21T06:26:36.680Z,32.70
2023-01-21T06:29:05.033Z,32.74
2023-01-21T06:31:33.828Z,32.70
2023-01-21T06:34:02.219Z,32.83
2023-01-21T06:36:30.879Z,32.63
2023-01-21T06:38:59.059Z,32.66
2023-01-21T06:41:27.690Z,32.78
2023-01-21T06:43:57.460Z,32.42
2023-01-21T06:46:26.081Z,32.58
2023-01-21T06:48:54.485Z,32.46
2023-01-21T06:51:23.171Z,32.39
2023-01-21T06:53:51.734Z,32.77
2023-01-21T06:56:20.355Z,32.66
2023-01-21T06:58:48.743Z,32.87
2023-01-21T07:01:18.678Z,32.58
2023-01-21T07:03:47.169Z,32.66
2023-01-21T07:06:15.850Z,32.53
2023-01-21T07:08:44.032Z,32.39
2023-01-21T07:11:12.560Z,32.70
2023-01-21T07:13:41.091Z,32.58
2023-01-21T07:16:09.840Z,32.63
2023-01-21T07:18:39.437Z,32.57
2023-01-21T07:21:07.893Z,32.59
2023-01-21T07:23:36.190Z,32.69
2023-01-21T07:26:04.912Z,32.72
2023-01-21T07:28:33.340Z,32.74
2023-01-21T07:31:02.713Z,32.77
2023-01-21T07:33:31.309Z,32.75
2023-01-21T07:36:01.423Z,32.57
2023-01-21T07:38:29.739Z,32.81
2023-01-21T07:40:58.565Z,32.72
2023-01-21T07:43:28.332Z,32.97
2023-01-21T07:45:59.966Z,32.82
2023-01-21T07:48:28.449Z,31.34
2023-01-21T07:50:58.452Z,32.69
2023-01-21T07:53:28.582Z,32.49
2023-01-21T07:55:57.168Z,32.66
2023-01-21T07:58:25.497Z,32.82
2023-01-21T08:00:54.439Z,32.76
2023-01-21T08:03:25.183Z,32.88
2023-01-21T08:05:53.879Z,32.66
2023-01-21T08:08:22.291Z,32.88
2023-01-21T08:10:54.257Z,32.61
2023-01-21T08:13:23.185Z,32.86
2023-01-21T08:15:52.297Z,33.00
2023-01-21T08:18:22.315Z,32.85
2023-01-21T08:20:55.255Z,32.53
2023-01-21T08:23:24.081Z,33.14
2023-01-21T08:25:54.697Z,33.08
2023-01-21T08:28:23.368Z,33.33
2023-01-21T08:30:52.165Z,33.39
2023-01-21T08:33:20.643Z,33.43
2023-01-21T08:35:49.372Z,33.57
2023-01-21T08:38:17.641Z,33.70
2023-01-21T08:40:46.703Z,33.65
2023-01-21T08:43:16.562Z,33.63
2023-01-21T08:45:45.134Z,33.82
2023-01-21T08:48:13.697Z,33.66
2023-01-21T08:50:42.437Z,33.89
2023-01-21T08:53:11.980Z,33.54
2023-01-21T08:55:41.032Z,33.57
2023-01-21T08:58:09.348Z,33.66
2023-01-21T09:00:39.610Z,33.37
2023-01-21T09:03:08.153Z,33.52
2023-01-21T09:05:37.089Z,33.38
2023-01-21T09:08:05.418Z,33.58
2023-01-21T09:10:52.801Z,33.40
2023-01-21T09:13:21.188Z,33.35
2023-01-21T09:15:51.527Z,33.07
2023-01-21T09:18:20.060Z,33.19
2023-01-21T09:20:48.836Z,33.07
2023-01-21T09:23:26.364Z,33.06
2023-01-21T09:25:56.917Z,32.89
2023-01-21T09:28:25.353Z,33.04
2023-01-21T09:30:59.204Z,32.55
2023-01-21T09:33:28.339Z,32.96
2023-01-21T09:35:57.386Z,32.89
2023-01-21T09:38:26.142Z,32.90
2023-01-21T09:40:55.855Z,32.60
2023-01-21T09:43:27.217Z,32.55
2023-01-21T09:46:03.768Z,32.47
2023-01-21T09:48:36.559Z,32.47
2023-01-21T09:51:07.838Z,32.51
2023-01-21T09:53:43.278Z,32.38
2023-01-21T09:56:22.828Z,32.11
2023-01-21T09:58:57.077Z,32.41
2023-01-21T10:01:32.850Z,32.24
2023-01-21T10:04:04.666Z,32.39
2023-01-21T10:06:38.545Z,32.38
2023-01-21T10:09:36.702Z,31.63
2023-01-21T10:12:16.436Z,31.69
2023-01-21T10:14:58.025Z,31.59
2023-01-21T10:17:32.592Z,31.56
2023-01-21T10:20:07.839Z,31.52
2023-01-21T10:22:36.756Z,31.76
2023-01-21T10:25:10.312Z,31.39
2023-01-21T10:27:39.925Z,31.62
2023-01-21T10:30:25.099Z,31.31
2023-01-21T10:32:56.842Z,31.03
2023-01-21T10:35:34.655Z,30.55
2023-01-21T10:38:10.832Z,30.55
2023-01-21T10:40:45.559Z,30.74
2023-01-21T10:43:21.069Z,30.44
2023-01-21T10:45:56.319Z,30.37
2023-01-21T10:48:34.013Z,30.16
2023-01-21T10:51:06.578Z,30.53
2023-01-21T10:53:39.527Z,30.43
2023-01-21T10:56:19.867Z,29.96
2023-01-21T10:58:52.404Z,30.21
2023-01-21T11:01:24.053Z,30.26
2023-01-21T11:03:56.544Z,29.89
2023-01-21T11:06:28.909Z,30.39
2023-01-21T11:09:02.728Z,30.09
2023-01-21T11:11:33.412Z,30.38
2023-01-21T11:14:02.292Z,30.28
2023-01-21T11:16:36.784Z,29.53
2023-01-21T11:19:08.820Z,29.67
2023-01-21T11:21:40.195Z,29.66
2023-01-21T11:24:24.697Z,29.38
2023-01-21T11:26:54.268Z,29.86
2023-01-21T11:29:24.306Z,29.92
2023-01-21T11:32:01.891Z,29.16
2023-01-21T11:34:32.377Z,29.26
2023-01-21T11:37:02.408Z,28.88
2023-01-21T11:39:33.500Z,28.84
2023-01-21T11:42:06.555Z,28.62
2023-01-21T11:44:35.596Z,29.18
2023-01-21T11:47:03.969Z,29.18
2023-01-21T11:49:34.511Z,28.80
2023-01-21T11:52:20.144Z,28.02
2023-01-21T11:54:50.147Z,28.60
2023-01-21T11:57:26.024Z,27.95
2023-01-21T11:59:57.132Z,28.05
2023-01-21T12:02:27.561Z,28.25
2023-01-21T12:05:01.288Z,28.12
2023-01-21T12:07:31.711Z,28.33
2023-01-21T12:10:07.183Z,28.04
2023-01-21T12:12:51.329Z,27.84
2023-01-21T12:15:29.827Z,27.85
2023-01-21T12:18:11.733Z,27.74
2023-01-21T12:20:49.136Z,27.93
2023-01-21T12:23:34.382Z,27.68
2023-01-21T12:26:11.406Z,27.92
2023-01-21T12:28:54.292Z,27.96
2023-01-21T12:31:29.637Z,28.30
2023-01-21T12:34:05.282Z,28.66
2023-01-21T12:36:39.040Z,28.88
2023-01-21T12:39:14.849Z,28.58
2023-01-21T12:41:45.847Z,28.81
2023-01-21T12:44:23.528Z,28.44
2023-01-21T12:46:56.287Z,28.42
2023-01-21T12:49:27.552Z,28.42
2023-01-21T12:52:00.123Z,28.78
2023-01-21T12:54:37.425Z,28.48
2023-01-21T12:57:11.375Z,28.79
2023-01-21T12:59:43.705Z,28.77
2023-01-21T13:02:21.996Z,28.05
2023-01-21T13:04:55.545Z,28.38
2023-01-21T13:07:35.254Z,27.99
2023-01-21T13:10:10.376Z,28.27
2023-01-21T13:12:39.763Z,28.63
2023-01-21T13:15:17.133Z,28.29
2023-01-21T13:17:49.751Z,28.51
2023-01-21T13:20:20.251Z,28.73
2023-01-21T13:22:58.782Z,28.27
2023-01-21T13:25:35.045Z,28.28
2023-01-21T13:28:08.928Z,28.27
2023-01-21T13:30:41.242Z,28.59
2023-01-21T13:33:29.869Z,27.93
2023-01-21T13:36:17.369Z,28.05
2023-01-21T13:38:51.419Z,28.27
2023-01-21T13:41:30.490Z,28.18
2023-01-21T13:44:11.473Z,28.33
2023-01-21T13:46:52.759Z,28.07
2023-01-21T13:49:48.742Z,27.77
2023-01-21T13:52:23.125Z,28.52
2023-01-21T13:55:06.170Z,28.50
2023-01-21T13:57:50.086Z,28.31
2023-01-21T14:00:20.750Z,28.66
2023-01-21T14:02:52.700Z,28.63
2023-01-21T14:05:26.068Z,28.74
2023-01-21T14:07:57.508Z,28.64
2023-01-21T14:10:31.982Z,28.75
2023-01-21T14:13:41.279Z,29.30
2023-01-21T14:16:23.562Z,28.97
2023-01-21T14:19:18.619Z,28.64
2023-01-21T14:22:07.293Z,28.89
2023-01-21T14:24:47.508Z,28.92
2023-01-21T14:27:24.503Z,29.25
2023-01-21T14:29:55.452Z,29.38
2023-01-21T14:32:28.350Z,29.24
2023-01-21T14:35:06.213Z,28.92
2023-01-21T14:37:41.211Z,29.12
2023-01-21T14:40:17.675Z,29.12
2023-01-21T14:42:49.378Z,29.36
2023-01-21T14:45:20.397Z,29.62
2023-01-21T14:47:51.816Z,29.87
2023-01-21T14:50:47.000Z,29.04
2023-01-21T14:53:23.998Z,29.58
2023-01-21T14:56:14.029Z,29.35
2023-01-21T14:58:48.356Z,29.61
2023-01-21T15:01:35.419Z,29.17
2023-01-21T15:04:07.873Z,30.06
2023-01-21T15:06:40.493Z,29.70
2023-01-21T15:09:13.720Z,30.24
2023-01-21T15:11:42.459Z,30.12
2023-01-21T15:14:17.797Z,29.70
2023-01-21T15:16:47.040Z,30.36
2023-01-21T15:19:26.303Z,30.12
2023-01-21T15:22:23.255Z,29.71
2023-01-21T15:25:19.737Z,29.79
2023-01-21T15:28:34.276Z,29.68
2023-01-21T15:31:06.671Z,30.28
2023-01-21T15:33:39.501Z,30.30
2023-01-21T15:36:15.470Z,30.31
2023-01-21T15:38:44.058Z,30.79
2023-01-21T15:41:20.064Z,30.70
2023-01-21T15:43:52.076Z,30.74
2023-01-21T15:46:28.155Z,30.55
2023-01-21T15:49:05.594Z,30.84
2023-01-21T15:51:43.731Z,30.87
2023-01-21T15:54:24.600Z,30.52
2023-01-21T15:56:58.422Z,30.82
2023-01-21T15:59:43.105Z,30.40
2023-01-21T16:02:18.750Z,30.84
2023-01-21T16:04:55.242Z,30.67
2023-01-21T16:07:32.112Z,30.67
2023-01-21T16:10:08.805Z,31.14
2023-01-21T16:12:43.364Z,30.91
2023-01-21T16:15:17.834Z,30.96
2023-01-21T16:18:00.197Z,30.79
2023-01-21T16:20:28.541Z,31.42
2023-01-21T16:23:00.437Z,31.17
2023-01-21T16:25:28.888Z,31.35
2023-01-21T16:27:57.671Z,31.39
2023-01-21T16:30:28.892Z,31.36
2023-01-21T16:33:12.421Z,30.51
2023-01-21T16:35:45.888Z,31.20
2023-01-21T16:38:16.524Z,31.39
2023-01-21T16:40:47.695Z,31.55
2023-01-21T16:43:25.846Z,30.77
2023-01-21T16:45:56.422Z,31.29
2023-01-21T16:48:29.525Z,31.14
2023-01-21T16:50:58.424Z,31.37
2023-01-21T16:53:27.367Z,31.35
2023-01-21T16:55:57.465Z,31.11
2023-01-21T16:58:29.686Z,30.97
2023-01-21T17:01:06.124Z,30.68
2023-01-21T17:03:36.783Z,31.15
2023-01-21T17:06:10.260Z,30.89
2023-01-21T17:08:39.477Z,31.32
2023-01-21T17:11:10.085Z,31.22
2023-01-21T17:13:41.506Z,31.26
2023-01-21T17:16:20.176Z,30.75
2023-01-21T17:18:54.186Z,30.84
2023-01-21T17:21:30.103Z,30.79
2023-01-21T17:24:01.394Z,30.98
2023-01-21T17:26:31.288Z,31.23
2023-01-21T17:29:09.195Z,31.15
2023-01-21T17:31:39.420Z,31.32
2023-01-21T17:34:21.554Z,30.62
2023-01-21T17:36:51.525Z,31.26
2023-01-21T17:39:58.043Z,30.55
2023-01-21T17:42:31.351Z,31.23
2023-01-21T17:45:01.739Z,31.46
2023-01-21T17:47:33.268Z,31.48
2023-01-21T17:50:08.493Z,31.43
2023-01-21T17:52:36.990Z,31.72
2023-01-21T17:55:22.083Z,31.30
2023-01-21T17:57:50.587Z,31.94
2023-01-21T18:00:30.698Z,31.61
2023-01-21T18:02:59.270Z,32.10
2023-01-21T18:05:29.753Z,31.95
2023-01-21T18:07:58.210Z,31.92
2023-01-21T18:10:29.761Z,31.86
2023-01-21T18:12:58.450Z,30.82
2023-01-21T18:15:27.888Z,31.99
2023-01-21T18:17:58.314Z,32.18
2023-01-21T18:20:30.056Z,32.43
2023-01-21T18:23:00.609Z,32.30
2023-01-21T18:25:29.612Z,32.78
2023-01-21T18:27:58.012Z,32.94
2023-01-21T18:30:29.120Z,32.97
2023-01-21T18:32:58.275Z,32.75
2023-01-21T18:35:30.475Z,32.61
2023-01-21T18:37:58.862Z,32.88
2023-01-21T18:40:28.067Z,33.03
2023-01-21T18:42:56.784Z,33.31
2023-01-21T18:45:27.640Z,33.25
2023-01-21T18:47:56.976Z,33.32
2023-01-21T18:50:26.953Z,33.30
2023-01-21T18:52:57.823Z,32.97
2023-01-21T18:55:28.567Z,32.90
2023-01-21T18:57:58.421Z,32.88
2023-01-21T19:00:28.903Z,33.12
2023-01-21T19:02:59.424Z,33.26
2023-01-21T19:05:31.010Z,32.96
2023-01-21T19:08:01.051Z,32.84
2023-01-21T19:10:30.512Z,33.23
2023-01-21T19:13:01.986Z,32.98
2023-01-21T19:15:30.908Z,33.00
2023-01-21T19:17:59.317Z,33.17
2023-01-21T19:20:29.629Z,32.99
2023-01-21T19:22:58.291Z,32.78
2023-01-21T19:25:28.441Z,32.46
2023-01-21T19:27:58.177Z,32.55
2023-01-21T19:30:30.580Z,32.30
2023-01-21T19:33:00.841Z,32.56
2023-01-21T19:35:32.778Z,32.24
2023-01-21T19:38:02.104Z,32.29
2023-01-21T19:40:32.804Z,31.32
2023-01-21T19:43:01.356Z,31.33
2023-01-21T19:45:30.737Z,30.97
2023-01-21T19:47:59.239Z,31.39
2023-01-21T19:50:28.917Z,31.41
2023-01-21T19:52:57.236Z,31.27
2023-01-21T19:55:27.010Z,31.56
2023-01-21T19:57:59.420Z,31.63
2023-01-21T20:00:30.322Z,31.75
2023-01-21T20:02:59.183Z,31.95
2023-01-21T20:05:29.196Z,32.09
2023-01-21T20:07:57.807Z,32.25
2023-01-21T20:10:28.130Z,32.22
2023-01-21T20:12:58.974Z,32.25
2023-01-21T20:15:29.544Z,30.99
2023-01-21T20:18:00.020Z,31.87
2023-01-21T20:20:30.249Z,31.98
2023-01-21T20:22:59.289Z,32.21
2023-01-21T20:25:33.338Z,32.25
2023-01-21T20:28:03.925Z,32.66
2023-01-21T20:30:33.819Z,32.93
2023-01-21T20:33:05.233Z,32.82
2023-01-21T20:35:33.843Z,33.05
2023-01-21T20:38:02.246Z,33.28
2023-01-21T20:40:31.881Z,32.98
2023-01-21T20:43:00.563Z,32.99
2023-01-21T20:45:33.680Z,32.69
2023-01-21T20:48:04.225Z,32.67
2023-01-21T20:50:35.705Z,32.92
2023-01-21T20:53:04.964Z,33.08
2023-01-21T20:55:33.812Z,33.08
2023-01-21T20:58:02.109Z,33.52
2023-01-21T21:00:34.319Z,33.28
2023-01-21T21:03:02.852Z,33.62
2023-01-21T21:05:31.770Z,33.60
2023-01-21T21:08:00.335Z,33.48
2023-01-21T21:10:32.511Z,33.18
2023-01-21T21:13:00.891Z,33.55
2023-01-21T21:15:30.106Z,33.52
2023-01-21T21:18:00.356Z,33.62
2023-01-21T21:20:31.251Z,33.41
2023-01-21T21:23:00.291Z,33.88
2023-01-21T21:25:31.645Z,33.61
2023-01-21T21:28:00.282Z,33.89
2023-01-21T21:30:30.841Z,33.84
2023-01-21T21:33:02.024Z,33.54
2023-01-21T21:35:32.439Z,33.79
2023-01-21T21:38:04.668Z,33.81
2023-01-21T21:40:34.834Z,33.97
2023-01-21T21:43:20.485Z,34.30
2023-01-21T21:46:06.471Z,34.29
2023-01-21T21:48:39.185Z,34.04
2023-01-21T21:51:08.768Z,34.21
2023-01-21T21:53:37.949Z,34.25
2023-01-21T21:56:08.595Z,34.01
2023-01-21T21:58:37.280Z,33.90
2023-01-21T22:01:11.034Z,33.51
2023-01-21T22:03:41.480Z,33.81
2023-01-21T22:06:10.853Z,33.45
2023-01-21T22:08:40.856Z,33.18
2023-01-21T22:11:11.769Z,33.26
2023-01-21T22:13:42.039Z,33.34
2023-01-21T22:16:13.439Z,33.32
2023-01-21T22:18:43.633Z,33.29
2023-01-21T22:21:15.344Z,32.91
2023-01-21T22:23:44.095Z,33.49
2023-01-21T22:26:14.293Z,33.27
2023-01-21T22:28:44.247Z,33.02
2023-01-21T22:31:16.315Z,32.87
2023-01-21T22:33:46.879Z,33.20
2023-01-21T22:36:17.380Z,33.38
2023-01-21T22:38:46.599Z,33.21
2023-01-21T22:41:16.511Z,33.09
2023-01-21T22:43:48.373Z,33.52
2023-01-21T22:46:19.110Z,33.40
2023-01-21T22:48:49.320Z,33.33
2023-01-21T22:51:21.420Z,33.40
2023-01-21T22:53:50.870Z,33.58
2023-01-21T22:56:23.403Z,33.41
2023-01-21T22:58:51.967Z,33.43
2023-01-21T23:01:25.870Z,33.05
2023-01-21T23:03:55.915Z,33.50
2023-01-21T23:06:25.390Z,33.45
2023-01-21T23:08:53.733Z,33.72
2023-01-21T23:11:22.874Z,33.52
2023-01-21T23:13:53.435Z,33.70
2023-01-21T23:16:22.894Z,33.70
2023-01-21T23:18:51.652Z,33.82
2023-01-21T23:21:23.266Z,33.58
2023-01-21T23:23:51.525Z,32.43
2023-01-21T23:26:20.890Z,33.86
2023-01-21T23:28:49.928Z,33.82
2023-01-21T23:31:19.491Z,33.77
2023-01-21T23:33:50.942Z,33.53
2023-01-21T23:36:24.205Z,33.49
2023-01-21T23:38:52.613Z,33.78
2023-01-21T23:41:21.958Z,33.94
2023-01-21T23:43:51.030Z,33.95
2023-01-21T23:46:20.743Z,33.95
2023-01-21T23:48:49.958Z,33.93
2023-01-21T23:51:19.906Z,34.62
2023-01-21T23:53:50.203Z,35.26
2023-01-21T23:56:21.595Z,34.60
2023-01-21T23:58:50.146Z,34.49
